createdAt,value
2023-01-30T00:00:41.839Z,37.50
2023-01-30T00:03:10.192Z,38.07
2023-01-30T00:05:37.738Z,37.87
2023-01-30T00:08:05.276Z,39.50
2023-01-30T00:10:32.827Z,37.37
2023-01-30T00:13:00.370Z,36.27
2023-01-30T00:15:28.656Z,40.50
2023-01-30T00:17:56.236Z,36.20
2023-01-30T00:20:23.763Z,35.50
2023-01-30T00:23:00.472Z,41.20
2023-01-30T00:25:19.959Z,40.83
2023-01-30T00:27:47.203Z,37.87
2023-01-30T00:30:14.779Z,40.97
2023-01-30T00:32:42.342Z,38.40
2023-01-30T00:35:09.876Z,45.12
2023-01-30T00:37:37.408Z,38.87
2023-01-30T00:40:05.082Z,39.30
2023-01-30T00:42:51.013Z,42.63
2023-01-30T00:45:36.683Z,36.83
2023-01-30T00:48:04.208Z,39.97
2023-01-30T00:50:31.725Z,42.33
2023-01-30T00:53:00.096Z,42.47
2023-01-30T00:55:28.451Z,43.30
2023-01-30T00:57:55.897Z,40.20
2023-01-30T01:00:23.460Z,39.40
2023-01-30T01:02:51.001Z,35.10
2023-01-30T01:05:18.884Z,44.25
2023-01-30T01:07:46.108Z,38.27
2023-01-30T01:10:13.646Z,38.70
2023-01-30T01:12:41.944Z,40.03
2023-01-30T01:15:09.614Z,36.23
2023-01-30T01:17:37.152Z,37.90
2023-01-30T01:20:04.788Z,36.83
2023-01-30T01:22:33.148Z,38.07
2023-01-30T01:25:00.694Z,38.70
2023-01-30T01:27:28.235Z,43.35
2023-01-30T01:29:55.780Z,39.83
2023-01-30T01:32:23.315Z,42.90
2023-01-30T01:34:51.615Z,41.03
2023-01-30T01:37:19.184Z,37.07
2023-01-30T01:40:04.817Z,39.80
2023-01-30T01:42:34.828Z,39.80
2023-01-30T01:45:11.883Z,37.87
2023-01-30T01:47:45.456Z,38.13
2023-01-30T01:50:15.824Z,37.17
2023-01-30T01:52:43.357Z,36.03
2023-01-30T01:55:10.923Z,37.33
2023-01-30T01:57:38.502Z,37.23
2023-01-30T02:00:12.208Z,37.67
2023-01-30T02:02:52.014Z,37.27
2023-01-30T02:05:19.985Z,37.23
2023-01-30T02:07:56.005Z,36.17
2023-01-30T02:10:23.561Z,36.40
2023-01-30T02:12:51.103Z,34.33
2023-01-30T02:15:19.079Z,33.93
2023-01-30T02:17:46.246Z,35.33
2023-01-30T02:20:28.852Z,36.33
2023-01-30T02:22:59.935Z,35.40
2023-01-30T02:25:39.207Z,32.83
2023-01-30T02:28:36.768Z,33.80
2023-01-30T02:31:25.595Z,41.03
2023-01-30T02:33:55.813Z,39.47
2023-01-30T02:36:44.879Z,33.30
2023-01-30T02:39:49.323Z,36.80
2023-01-30T02:42:25.660Z,33.13
2023-01-30T02:44:53.185Z,33.10
2023-01-30T02:47:43.501Z,33.67
2023-01-30T02:50:11.118Z,36.17
2023-01-30T02:52:38.656Z,34.33
2023-01-30T02:55:18.206Z,40.33
2023-01-30T02:57:46.113Z,40.40
2023-01-30T03:00:13.660Z,33.97
2023-01-30T03:03:00.356Z,34.17
2023-01-30T03:05:49.801Z,33.13
2023-01-30T03:08:26.123Z,33.00
2023-01-30T03:10:59.676Z,34.07
2023-01-30T03:13:30.235Z,36.30
2023-01-30T03:16:01.113Z,33.53
2023-01-30T03:18:28.588Z,33.67
2023-01-30T03:20:56.729Z,35.60
2023-01-30T03:23:24.405Z,32.63
2023-01-30T03:25:52.655Z,31.73
2023-01-30T03:28:20.196Z,31.33
2023-01-30T03:30:48.612Z,33.47
2023-01-30T03:33:16.069Z,30.43
2023-01-30T03:35:44.369Z,28.87
2023-01-30T03:38:11.893Z,34.27
2023-01-30T03:40:41.003Z,33.17
2023-01-30T03:43:07.223Z,30.60
2023-01-30T03:45:34.757Z,26.43
2023-01-30T03:48:02.287Z,27.77
2023-01-30T03:50:29.844Z,28.90
2023-01-30T03:52:57.385Z,26.37
2023-01-30T03:55:24.927Z,29.50
2023-01-30T03:57:52.497Z,31.27
2023-01-30T04:00:20.370Z,28.13
2023-01-30T04:02:47.968Z,22.43
2023-01-30T04:05:15.658Z,22.10
2023-01-30T04:07:42.992Z,21.83
2023-01-30T04:10:11.456Z,20.93
2023-01-30T04:12:39.023Z,18.57
2023-01-30T04:15:06.740Z,24.73
2023-01-30T04:17:34.276Z,19.80
2023-01-30T04:20:01.861Z,17.33
2023-01-30T04:22:29.415Z,19.50
2023-01-30T04:24:56.953Z,20.90
2023-01-30T04:27:24.514Z,17.33
2023-01-30T04:29:52.073Z,15.50
2023-01-30T04:32:19.610Z,19.23
2023-01-30T04:34:47.972Z,17.70
2023-01-30T04:37:15.493Z,15.90
2023-01-30T04:39:43.020Z,16.77
2023-01-30T04:42:10.598Z,16.23
2023-01-30T04:44:38.148Z,17.90
2023-01-30T04:47:05.709Z,15.47
2023-01-30T04:49:33.368Z,16.33
2023-01-30T04:52:00.882Z,14.37
2023-01-30T04:54:28.425Z,13.67
2023-01-30T04:56:55.995Z,13.43
2023-01-30T04:59:23.519Z,15.82
2023-01-30T05:01:51.092Z,17.23
2023-01-30T05:04:18.628Z,14.77
2023-01-30T05:06:46.178Z,13.57
2023-01-30T05:09:13.698Z,15.27
2023-01-30T05:11:41.245Z,15.47
2023-01-30T05:14:08.762Z,14.77
2023-01-30T05:16:36.299Z,15.67
2023-01-30T05:19:03.861Z,15.27
2023-01-30T05:21:31.424Z,19.87
2023-01-30T05:23:58.968Z,13.67
2023-01-30T05:26:27.317Z,15.03
2023-01-30T05:28:54.811Z,13.83
2023-01-30T05:31:22.400Z,17.00
2023-01-30T05:33:49.925Z,15.93
2023-01-30T05:36:17.472Z,15.03
2023-01-30T05:38:45.752Z,16.53
2023-01-30T05:41:13.318Z,14.90
2023-01-30T05:43:41.604Z,17.40
2023-01-30T05:46:09.137Z,15.87
2023-01-30T05:48:37.483Z,15.80
2023-01-30T05:51:04.998Z,16.00
2023-01-30T05:53:32.660Z,18.93
2023-01-30T05:56:00.239Z,16.93
2023-01-30T05:58:27.759Z,16.77
2023-01-30T06:00:56.061Z,16.13
2023-01-30T06:03:23.670Z,17.13
2023-01-30T06:05:51.154Z,15.60
2023-01-30T06:08:19.455Z,14.20
2023-01-30T06:10:47.023Z,17.00
2023-01-30T06:13:14.555Z,17.20
2023-01-30T06:15:42.872Z,15.20
2023-01-30T06:18:10.443Z,17.07
2023-01-30T06:20:37.991Z,18.20
2023-01-30T06:23:05.511Z,15.23
2023-01-30T06:25:33.857Z,15.03
2023-01-30T06:28:01.369Z,14.83
2023-01-30T06:30:28.916Z,12.97
2023-01-30T06:32:57.252Z,14.80
2023-01-30T06:35:24.787Z,13.77
2023-01-30T06:37:52.304Z,14.37
2023-01-30T06:40:19.865Z,14.87
2023-01-30T06:42:47.391Z,13.97
2023-01-30T06:45:17.979Z,14.13
2023-01-30T06:47:48.155Z,12.80
2023-01-30T06:50:16.489Z,14.87
2023-01-30T06:52:46.910Z,13.87
2023-01-30T06:55:15.486Z,14.50
2023-01-30T06:57:42.787Z,16.40
2023-01-30T07:00:13.894Z,11.93
2023-01-30T07:02:41.732Z,13.93
2023-01-30T07:05:09.260Z,13.63
2023-01-30T07:07:37.553Z,16.00
2023-01-30T07:10:08.623Z,11.67
2023-01-30T07:12:32.670Z,12.40
2023-01-30T07:15:00.243Z,12.50
2023-01-30T07:17:27.777Z,12.63
2023-01-30T07:19:56.095Z,16.50
2023-01-30T07:22:23.613Z,13.70
2023-01-30T07:24:51.948Z,15.73
2023-01-30T07:27:19.472Z,13.00
2023-01-30T07:29:46.998Z,11.80
2023-01-30T07:32:14.567Z,12.10
2023-01-30T07:34:42.869Z,11.50
2023-01-30T07:37:10.442Z,12.53
2023-01-30T07:39:38.323Z,13.67
2023-01-30T07:42:05.837Z,10.67
2023-01-30T07:44:33.370Z,8.00
2023-01-30T07:47:01.008Z,9.37
2023-01-30T07:49:29.222Z,9.93
2023-01-30T07:51:57.539Z,9.37
2023-01-30T07:54:25.109Z,8.70
2023-01-30T07:56:52.666Z,9.10
2023-01-30T07:59:20.182Z,10.30
2023-01-30T08:01:48.528Z,8.37
2023-01-30T08:04:16.113Z,7.23
2023-01-30T08:06:43.705Z,9.25
2023-01-30T08:09:11.283Z,13.97
2023-01-30T08:11:38.813Z,9.40
2023-01-30T08:14:06.359Z,9.00
2023-01-30T08:16:34.030Z,7.53
2023-01-30T08:19:01.459Z,9.27
2023-01-30T08:21:29.757Z,9.40
2023-01-30T08:24:00.104Z,6.40
2023-01-30T08:26:24.896Z,5.63
2023-01-30T08:28:53.158Z,7.77
2023-01-30T08:31:21.498Z,7.50
2023-01-30T08:33:49.010Z,5.03
2023-01-30T08:36:16.562Z,4.17
2023-01-30T08:38:45.037Z,4.73
2023-01-30T08:41:12.566Z,4.50
2023-01-30T08:43:40.854Z,5.23
2023-01-30T08:46:09.267Z,5.03
2023-01-30T08:48:47.699Z,5.23
2023-01-30T08:51:04.268Z,5.27
2023-01-30T08:53:31.862Z,5.40
2023-01-30T08:55:59.386Z,7.67
2023-01-30T08:58:26.928Z,6.53
2023-01-30T09:00:55.273Z,5.03
2023-01-30T09:03:22.780Z,4.97
2023-01-30T09:05:56.131Z,6.30
2023-01-30T09:08:23.692Z,5.07
2023-01-30T09:10:51.228Z,5.62
2023-01-30T09:13:18.745Z,5.60
2023-01-30T09:15:46.333Z,5.83
2023-01-30T09:18:13.855Z,4.40
2023-01-30T09:20:41.387Z,5.53
2023-01-30T09:23:08.956Z,6.57
2023-01-30T09:25:37.247Z,5.37
2023-01-30T09:28:04.780Z,5.20
2023-01-30T09:30:32.454Z,5.27
2023-01-30T09:33:00.643Z,5.70
2023-01-30T09:35:28.168Z,7.27
2023-01-30T09:37:56.708Z,8.70
2023-01-30T09:40:30.150Z,4.13
2023-01-30T09:43:21.653Z,3.73
2023-01-30T09:46:03.972Z,3.77
2023-01-30T09:48:34.559Z,4.77
2023-01-30T09:51:16.726Z,4.23
2023-01-30T09:53:56.610Z,3.03
2023-01-30T09:56:24.153Z,3.57
2023-01-30T09:58:57.387Z,4.07
2023-01-30T10:01:33.916Z,3.67
2023-01-30T10:04:16.401Z,4.57
2023-01-30T10:06:44.362Z,4.70
2023-01-30T10:09:12.663Z,4.82
2023-01-30T10:12:04.363Z,3.53
2023-01-30T10:14:43.335Z,4.27
2023-01-30T10:17:32.311Z,4.40
2023-01-30T10:20:15.331Z,6.30
2023-01-30T10:22:57.753Z,2.50
2023-01-30T10:25:37.567Z,2.47
2023-01-30T10:28:17.127Z,4.07
2023-01-30T10:30:45.232Z,2.83
2023-01-30T10:33:21.731Z,4.30
2023-01-30T10:35:49.305Z,3.63
2023-01-30T10:38:16.843Z,3.63
2023-01-30T10:40:54.533Z,2.07
2023-01-30T10:43:40.780Z,5.43
2023-01-30T10:46:11.395Z,4.00
2023-01-30T10:48:57.368Z,3.67
2023-01-30T10:51:30.723Z,4.18
2023-01-30T10:54:04.098Z,4.00
2023-01-30T10:56:49.719Z,5.13
2023-01-30T10:59:30.431Z,2.67
2023-01-30T11:02:01.197Z,2.60
2023-01-30T11:04:37.616Z,2.30
2023-01-30T11:07:05.153Z,2.87
2023-01-30T11:09:39.303Z,1.87
2023-01-30T11:12:06.881Z,2.10
2023-01-30T11:14:52.994Z,1.90
2023-01-30T11:17:20.572Z,1.73
2023-01-30T11:19:48.092Z,1.73
2023-01-30T11:22:16.372Z,2.60
2023-01-30T11:24:43.862Z,3.33
2023-01-30T11:27:17.281Z,3.12
2023-01-30T11:29:44.753Z,1.80
2023-01-30T11:32:28.785Z,2.57
2023-01-30T11:35:03.004Z,3.60
2023-01-30T11:37:34.246Z,3.17
2023-01-30T11:40:01.780Z,2.63
2023-01-30T11:42:31.995Z,2.70
2023-01-30T11:45:15.665Z,2.30
2023-01-30T11:47:27.862Z,2.92
2023-01-30T11:50:24.339Z,3.87
2023-01-30T11:52:26.386Z,6.27
2023-01-30T11:54:53.918Z,3.47
2023-01-30T11:57:21.440Z,5.57
2023-01-30T11:59:54.820Z,4.33
2023-01-30T12:02:25.112Z,5.25
2023-01-30T12:04:52.562Z,4.90
2023-01-30T12:07:22.831Z,7.87
2023-01-30T12:09:50.338Z,6.13
2023-01-30T12:12:36.354Z,5.30
2023-01-30T12:15:15.837Z,5.80
2023-01-30T12:17:43.400Z,6.13
2023-01-30T12:20:45.427Z,5.73
2023-01-30T12:23:40.602Z,4.30
2023-01-30T12:26:29.593Z,4.80
2023-01-30T12:29:14.893Z,6.63
2023-01-30T12:31:51.073Z,6.13
2023-01-30T12:34:24.267Z,8.05
2023-01-30T12:37:15.859Z,4.30
2023-01-30T12:39:49.805Z,5.70
2023-01-30T12:42:45.188Z,5.03
2023-01-30T12:45:17.067Z,5.20
2023-01-30T12:48:05.821Z,7.07
2023-01-30T12:50:42.247Z,11.23
2023-01-30T12:53:09.765Z,5.63
2023-01-30T12:55:50.466Z,4.53
2023-01-30T12:58:23.737Z,5.53
2023-01-30T13:00:53.996Z,13.07
2023-01-30T13:03:33.539Z,6.87
2023-01-30T13:06:28.451Z,6.77
2023-01-30T13:09:01.795Z,5.63
2023-01-30T13:11:41.045Z,4.30
2023-01-30T13:14:14.344Z,5.83
2023-01-30T13:17:02.624Z,13.03
2023-01-30T13:19:40.421Z,7.87
2023-01-30T13:22:16.242Z,6.33
2023-01-30T13:25:04.675Z,4.13
2023-01-30T13:27:32.218Z,9.03
2023-01-30T13:29:59.751Z,3.77
2023-01-30T13:32:45.777Z,6.50
2023-01-30T13:35:21.592Z,5.53
2023-01-30T13:37:49.139Z,8.20
2023-01-30T13:40:19.752Z,3.43
2023-01-30T13:42:46.919Z,5.37
2023-01-30T13:45:14.466Z,6.77
2023-01-30T13:47:47.741Z,8.87
2023-01-30T13:50:42.177Z,13.53
2023-01-30T13:53:13.580Z,6.53
2023-01-30T13:55:59.171Z,7.87
2023-01-30T13:58:41.656Z,10.03
2023-01-30T14:01:09.229Z,8.10
2023-01-30T14:03:37.477Z,4.90
2023-01-30T14:06:05.796Z,9.87
2023-01-30T14:08:39.358Z,11.77
2023-01-30T14:11:06.900Z,8.40
2023-01-30T14:13:35.245Z,9.15
2023-01-30T14:16:05.365Z,8.37
2023-01-30T14:18:32.867Z,10.57
2023-01-30T14:21:18.683Z,8.67
2023-01-30T14:23:55.087Z,7.60
2023-01-30T14:26:53.279Z,6.50
2023-01-30T14:29:38.825Z,8.97
2023-01-30T14:32:13.487Z,10.93
2023-01-30T14:34:40.918Z,9.63
2023-01-30T14:37:26.432Z,11.40
2023-01-30T14:39:54.730Z,7.57
2023-01-30T14:42:25.043Z,12.50
2023-01-30T14:45:05.065Z,6.97
2023-01-30T14:47:36.246Z,6.40
2023-01-30T14:50:00.143Z,9.20
2023-01-30T14:52:42.456Z,6.73
2023-01-30T14:55:21.967Z,8.17
2023-01-30T14:57:55.785Z,8.23
2023-01-30T15:00:31.854Z,8.10
2023-01-30T15:02:59.369Z,8.70
2023-01-30T15:05:33.726Z,6.93
2023-01-30T15:08:10.241Z,7.43
2023-01-30T15:11:02.164Z,8.40
2023-01-30T15:13:51.506Z,6.90
2023-01-30T15:16:25.140Z,6.57
2023-01-30T15:19:11.108Z,11.67
2023-01-30T15:21:44.401Z,18.23
2023-01-30T15:24:49.018Z,10.43
2023-01-30T15:27:31.738Z,13.18
2023-01-30T15:30:05.056Z,11.60
2023-01-30T15:32:33.272Z,7.83
2023-01-30T15:35:00.854Z,11.07
2023-01-30T15:37:31.359Z,9.87
2023-01-30T15:40:17.347Z,9.63
2023-01-30T15:42:52.936Z,5.27
2023-01-30T15:45:44.838Z,13.23
2023-01-30T15:48:18.014Z,12.80
2023-01-30T15:50:51.939Z,8.60
2023-01-30T15:53:19.467Z,8.93
2023-01-30T15:55:47.794Z,8.80
2023-01-30T15:58:15.349Z,9.23
2023-01-30T16:00:55.123Z,12.67
2023-01-30T16:03:22.588Z,8.63
2023-01-30T16:05:50.107Z,8.33
2023-01-30T16:08:26.598Z,10.20
2023-01-30T16:10:55.131Z,11.63
2023-01-30T16:13:22.672Z,11.43
2023-01-30T16:16:12.490Z,8.53
2023-01-30T16:18:39.929Z,7.63
2023-01-30T16:21:09.033Z,7.17
2023-01-30T16:23:42.224Z,10.67
2023-01-30T16:26:09.794Z,9.20
2023-01-30T16:28:37.312Z,9.70
2023-01-30T16:31:05.836Z,8.03
2023-01-30T16:33:33.165Z,8.83
2023-01-30T16:36:00.714Z,11.00
2023-01-30T16:38:37.702Z,7.67
2023-01-30T16:41:06.035Z,9.40
2023-01-30T16:43:33.581Z,8.67
2023-01-30T16:46:19.744Z,11.35
2023-01-30T16:48:47.215Z,12.60
2023-01-30T16:51:17.832Z,11.57
2023-01-30T16:53:45.397Z,8.17
2023-01-30T16:56:12.922Z,17.07
2023-01-30T16:58:41.218Z,19.57
2023-01-30T17:01:09.165Z,11.87
2023-01-30T17:03:36.703Z,10.10
2023-01-30T17:06:04.264Z,11.57
2023-01-30T17:08:31.797Z,8.83
2023-01-30T17:11:00.041Z,9.00
2023-01-30T17:13:33.310Z,12.53
2023-01-30T17:16:19.022Z,12.17
2023-01-30T17:18:47.195Z,8.57
2023-01-30T17:21:14.744Z,9.37
2023-01-30T17:23:46.427Z,8.77
2023-01-30T17:26:13.984Z,8.60
2023-01-30T17:28:41.494Z,8.30
2023-01-30T17:31:11.831Z,6.07
2023-01-30T17:33:39.308Z,9.17
2023-01-30T17:36:06.854Z,9.17
2023-01-30T17:38:36.068Z,7.00
2023-01-30T17:41:03.600Z,7.87
2023-01-30T17:43:31.908Z,12.87
2023-01-30T17:45:59.487Z,8.23
2023-01-30T17:48:27.001Z,8.97
2023-01-30T17:50:55.304Z,11.10
2023-01-30T17:53:22.881Z,12.93
2023-01-30T17:55:50.399Z,8.73
2023-01-30T17:58:17.936Z,8.60
2023-01-30T18:00:45.505Z,10.60
2023-01-30T18:03:13.029Z,10.40
2023-01-30T18:05:40.571Z,13.77
2023-01-30T18:08:08.144Z,22.67
2023-01-30T18:10:35.691Z,26.63
2023-01-30T18:13:03.256Z,21.13
2023-01-30T18:15:30.824Z,19.97
2023-01-30T18:17:58.463Z,20.40
2023-01-30T18:20:25.927Z,24.50
2023-01-30T18:22:53.486Z,16.57
2023-01-30T18:25:21.412Z,18.20
2023-01-30T18:27:48.537Z,8.20
2023-01-30T18:30:17.657Z,14.97
2023-01-30T18:32:52.069Z,12.93
2023-01-30T18:35:11.174Z,14.07
2023-01-30T18:37:38.751Z,16.10
2023-01-30T18:40:06.458Z,11.43
2023-01-30T18:42:34.812Z,12.43
2023-01-30T18:45:02.930Z,17.77
2023-01-30T18:47:30.627Z,19.80
2023-01-30T18:49:59.119Z,11.93
2023-01-30T18:52:28.049Z,11.17
2023-01-30T18:54:56.478Z,16.55
2023-01-30T18:57:24.218Z,10.60
2023-01-30T18:59:52.266Z,7.70
2023-01-30T19:02:20.726Z,12.60
2023-01-30T19:04:48.635Z,7.10
2023-01-30T19:07:16.445Z,14.27
2023-01-30T19:09:44.037Z,9.67
2023-01-30T19:12:30.499Z,13.20
2023-01-30T19:14:58.185Z,10.17
2023-01-30T19:17:25.783Z,10.23
2023-01-30T19:19:55.052Z,13.87
2023-01-30T19:22:22.759Z,10.90
2023-01-30T19:24:51.096Z,15.40
2023-01-30T19:27:19.777Z,9.37
2023-01-30T19:29:47.261Z,17.40
2023-01-30T19:32:14.793Z,20.23
2023-01-30T19:34:43.152Z,18.57
2023-01-30T19:37:10.692Z,18.43
2023-01-30T19:39:38.236Z,16.45
2023-01-30T19:42:05.813Z,12.90
2023-01-30T19:44:33.351Z,15.10
2023-01-30T19:47:00.900Z,17.55
2023-01-30T19:49:28.506Z,12.37
2023-01-30T19:51:56.017Z,13.83
2023-01-30T19:54:23.549Z,11.27
2023-01-30T19:56:52.055Z,13.10
2023-01-30T19:59:19.577Z,14.33
2023-01-30T20:01:47.962Z,11.60
2023-01-30T20:04:15.507Z,13.23
2023-01-30T20:06:43.806Z,13.17
2023-01-30T20:09:11.406Z,11.87
2023-01-30T20:11:39.709Z,10.73
2023-01-30T20:14:07.297Z,14.90
2023-01-30T20:16:34.858Z,18.37
2023-01-30T20:19:02.390Z,13.80
2023-01-30T20:21:29.930Z,15.33
2023-01-30T20:23:57.481Z,17.30
2023-01-30T20:26:28.134Z,24.08
2023-01-30T20:28:55.572Z,17.93
2023-01-30T20:31:23.219Z,18.97
2023-01-30T20:33:51.778Z,8.50
2023-01-30T20:36:19.333Z,19.17
2023-01-30T20:38:46.877Z,11.07
2023-01-30T20:41:21.072Z,11.27
2023-01-30T20:43:48.604Z,14.37
2023-01-30T20:46:16.216Z,17.87
2023-01-30T20:48:44.696Z,17.83
2023-01-30T20:51:15.341Z,16.33
2023-01-30T20:53:54.655Z,11.77
2023-01-30T20:56:22.159Z,15.83
2023-01-30T20:58:49.767Z,9.67
2023-01-30T21:01:18.337Z,10.47
2023-01-30T21:03:45.097Z,15.93
2023-01-30T21:06:12.602Z,20.13
2023-01-30T21:08:41.059Z,13.10
2023-01-30T21:11:08.581Z,10.97
2023-01-30T21:13:37.022Z,10.33
2023-01-30T21:16:08.302Z,11.10
2023-01-30T21:18:35.799Z,11.23
2023-01-30T21:21:04.249Z,11.87
2023-01-30T21:23:31.669Z,13.83
2023-01-30T21:25:59.312Z,10.60
2023-01-30T21:28:26.877Z,12.57
2023-01-30T21:30:54.774Z,16.70
2023-01-30T21:33:22.272Z,24.40
2023-01-30T21:35:50.569Z,21.70
2023-01-30T21:38:36.648Z,19.77
2023-01-30T21:41:21.836Z,18.03
2023-01-30T21:43:49.413Z,18.50
2023-01-30T21:46:16.992Z,18.57
2023-01-30T21:48:44.499Z,18.87
2023-01-30T21:51:12.074Z,22.67
2023-01-30T21:53:40.031Z,18.07
2023-01-30T21:56:07.986Z,18.50
2023-01-30T21:58:35.531Z,20.37
2023-01-30T22:01:03.871Z,18.10
2023-01-30T22:03:31.428Z,15.27
2023-01-30T22:05:59.692Z,13.50
2023-01-30T22:08:27.227Z,18.97
2023-01-30T22:11:09.700Z,25.83
2023-01-30T22:13:37.555Z,21.00
2023-01-30T22:16:04.787Z,20.23
2023-01-30T22:18:32.427Z,14.97
2023-01-30T22:21:05.872Z,16.33
2023-01-30T22:23:33.410Z,19.93
2023-01-30T22:26:00.981Z,18.53
2023-01-30T22:28:28.529Z,12.10
2023-01-30T22:31:02.137Z,21.80
2023-01-30T22:33:29.667Z,22.65
2023-01-30T22:35:57.222Z,14.93
2023-01-30T22:38:24.735Z,19.97
2023-01-30T22:40:52.291Z,15.93
2023-01-30T22:43:19.823Z,18.37
2023-01-30T22:45:47.358Z,14.53
2023-01-30T22:48:14.981Z,26.10
2023-01-30T22:50:43.286Z,18.00
2023-01-30T22:53:10.810Z,29.30
2023-01-30T22:55:39.342Z,15.70
2023-01-30T22:58:06.685Z,20.73
2023-01-30T23:00:34.225Z,18.10
2023-01-30T23:03:02.572Z,22.20
2023-01-30T23:05:30.105Z,9.23
2023-01-30T23:07:57.634Z,26.20
2023-01-30T23:10:25.217Z,19.77
2023-01-30T23:13:07.603Z,21.47
2023-01-30T23:15:38.094Z,18.50
2023-01-30T23:18:24.511Z,22.17
2023-01-30T23:20:52.085Z,15.60
2023-01-30T23:23:20.379Z,19.00
2023-01-30T23:25:47.831Z,14.70
2023-01-30T23:28:15.675Z,14.40
2023-01-30T23:30:43.216Z,14.23
2023-01-30T23:33:10.728Z,14.23
2023-01-30T23:35:38.821Z,13.17
2023-01-30T23:38:20.820Z,21.47
2023-01-30T23:40:48.383Z,12.73
2023-01-30T23:43:15.917Z,19.92
2023-01-30T23:45:43.460Z,18.93
2023-01-30T23:48:11.021Z,17.33
2023-01-30T23:50:38.726Z,19.47
2023-01-30T23:53:06.103Z,14.40
2023-01-30T23:55:34.448Z,14.43
2023-01-30T23:58:01.980Z,14.33
